sensor_id;sensor_type;location;lat;lon;timestamp;P1;durP1;ratioP1;P2;durP2;ratioP2
57233;SDS011;43090;52.604;13.318;2023-12-28T00:02:09;13.77;;;4.82;;
57233;SDS011;43090;52.604;13.318;2023-12-28T00:04:36;11.82;;;4.55;;
57233;SDS011;43090;52.604;13.318;2023-12-28T00:07:03;8.32;;;4.97;;
57233;SDS011;43090;52.604;13.318;2023-12-28T00:09:35;13.43;;;4.45;;
57233;SDS011;43090;52.604;13.318;2023-12-28T00:12:10;14.50;;;4.68;;
57233;SDS011;43090;52.604;13.318;2023-12-28T00:14:37;10.88;;;4.50;;
57233;SDS011;43090;52.604;13.318;2023-12-28T00:17:06;13.30;;;4.30;;
57233;SDS011;43090;52.604;13.318;2023-12-28T00:19:34;12.95;;;4.53;;
57233;SDS011;43090;52.604;13.318;2023-12-28T00:22:03;13.88;;;4.07;;
57233;SDS011;43090;52.604;13.318;2023-12-28T00:24:30;18.85;;;5.32;;
57233;SDS011;43090;52.604;13.318;2023-12-28T00:26:57;9.57;;;4.53;;
57233;SDS011;43090;52.604;13.318;2023-12-28T00:29:24;14.68;;;4.25;;
57233;SDS011;43090;52.604;13.318;2023-12-28T00:31:51;15.02;;;4.35;;
57233;SDS011;43090;52.604;13.318;2023-12-28T00:34:20;9.50;;;4.20;;
57233;SDS011;43090;52.604;13.318;2023-12-28T00:36:47;16.50;;;4.20;;
57233;SDS011;43090;52.604;13.318;2023-12-28T00:39:13;11.00;;;4.32;;
57233;SDS011;43090;52.604;13.318;2023-12-28T00:41:41;8.45;;;4.07;;
57233;SDS011;43090;52.604;13.318;2023-12-28T00:46:36;10.07;;;4.20;;
57233;SDS011;43090;52.604;13.318;2023-12-28T00:51:29;6.40;;;3.72;;
57233;SDS011;43090;52.604;13.318;2023-12-28T00:53:56;11.48;;;4.72;;
57233;SDS011;43090;52.604;13.318;2023-12-28T00:56:24;11.43;;;4.18;;
57233;SDS011;43090;52.604;13.318;2023-12-28T00:58:54;11.40;;;3.90;;
57233;SDS011;43090;52.604;13.318;2023-12-28T01:01:25;9.77;;;3.95;;
57233;SDS011;43090;52.604;13.318;2023-12-28T01:03:52;18.38;;;4.53;;
57233;SDS011;43090;52.604;13.318;2023-12-28T01:06:19;9.15;;;4.00;;
57233;SDS011;43090;52.604;13.318;2023-12-28T01:08:57;6.72;;;3.15;;
57233;SDS011;43090;52.604;13.318;2023-12-28T01:11:29;9.73;;;3.53;;
57233;SDS011;43090;52.604;13.318;2023-12-28T01:13:56;12.60;;;3.50;;
57233;SDS011;43090;52.604;13.318;2023-12-28T01:16:24;9.18;;;3.42;;
57233;SDS011;43090;52.604;13.318;2023-12-28T01:18:53;13.95;;;3.72;;
57233;SDS011;43090;52.604;13.318;2023-12-28T01:21:20;15.65;;;4.82;;
57233;SDS011;43090;52.604;13.318;2023-12-28T01:23:47;7.15;;;3.45;;
57233;SDS011;43090;52.604;13.318;2023-12-28T01:26:14;11.35;;;3.60;;
57233;SDS011;43090;52.604;13.318;2023-12-28T01:28:41;9.52;;;3.45;;
57233;SDS011;43090;52.604;13.318;2023-12-28T01:31:08;10.52;;;3.00;;
57233;SDS011;43090;52.604;13.318;2023-12-28T01:33:35;6.53;;;2.92;;
57233;SDS011;43090;52.604;13.318;2023-12-28T01:36:03;8.30;;;3.13;;
57233;SDS011;43090;52.604;13.318;2023-12-28T01:38:46;6.97;;;2.72;;
57233;SDS011;43090;52.604;13.318;2023-12-28T01:41:15;8.90;;;3.47;;
57233;SDS011;43090;52.604;13.318;2023-12-28T01:43:45;7.40;;;3.05;;
57233;SDS011;43090;52.604;13.318;2023-12-28T01:46:15;9.85;;;3.22;;
57233;SDS011;43090;52.604;13.318;2023-12-28T01:48:48;7.88;;;2.90;;
57233;SDS011;43090;52.604;13.318;2023-12-28T01:51:17;7.03;;;3.00;;
57233;SDS011;43090;52.604;13.318;2023-12-28T01:53:54;8.18;;;2.83;;
57233;SDS011;43090;52.604;13.318;2023-12-28T01:56:23;5.70;;;2.88;;
57233;SDS011;43090;52.604;13.318;2023-12-28T01:58:54;7.38;;;2.83;;
57233;SDS011;43090;52.604;13.318;2023-12-28T02:01:27;7.90;;;2.80;;
57233;SDS011;43090;52.604;13.318;2023-12-28T02:03:57;5.68;;;2.60;;
57233;SDS011;43090;52.604;13.318;2023-12-28T02:06:27;6.47;;;2.45;;
57233;SDS011;43090;52.604;13.318;2023-12-28T02:08:57;7.40;;;3.38;;
57233;SDS011;43090;52.604;13.318;2023-12-28T02:11:25;8.15;;;2.95;;
57233;SDS011;43090;52.604;13.318;2023-12-28T02:13:53;5.82;;;2.72;;
57233;SDS011;43090;52.604;13.318;2023-12-28T02:18:57;4.30;;;2.35;;
57233;SDS011;43090;52.604;13.318;2023-12-28T02:21:34;7.93;;;2.45;;
57233;SDS011;43090;52.604;13.318;2023-12-28T02:24:04;4.95;;;2.65;;
57233;SDS011;43090;52.604;13.318;2023-12-28T02:26:31;12.05;;;2.95;;
57233;SDS011;43090;52.604;13.318;2023-12-28T02:29:01;5.63;;;2.53;;
57233;SDS011;43090;52.604;13.318;2023-12-28T02:46:19;5.32;;;2.03;;
57233;SDS011;43090;52.604;13.318;2023-12-28T02:48:45;4.68;;;2.10;;
57233;SDS011;43090;52.604;13.318;2023-12-28T02:51:17;4.35;;;1.95;;
57233;SDS011;43090;52.604;13.318;2023-12-28T02:53:44;6.00;;;2.15;;
57233;SDS011;43090;52.604;13.318;2023-12-28T02:56:21;4.63;;;1.90;;
57233;SDS011;43090;52.604;13.318;2023-12-28T03:01:23;4.45;;;1.77;;
57233;SDS011;43090;52.604;13.318;2023-12-28T03:03:51;3.22;;;1.60;;
57233;SDS011;43090;52.604;13.318;2023-12-28T03:06:20;2.47;;;1.42;;
57233;SDS011;43090;52.604;13.318;2023-12-28T03:08:50;5.97;;;1.70;;
57233;SDS011;43090;52.604;13.318;2023-12-28T03:11:20;2.78;;;1.60;;
57233;SDS011;43090;52.604;13.318;2023-12-28T03:13:55;3.13;;;1.40;;
57233;SDS011;43090;52.604;13.318;2023-12-28T03:16:22;4.40;;;1.58;;
57233;SDS011;43090;52.604;13.318;2023-12-28T03:18:55;3.03;;;1.40;;
57233;SDS011;43090;52.604;13.318;2023-12-28T03:21:22;5.70;;;1.67;;
57233;SDS011;43090;52.604;13.318;2023-12-28T03:23:49;4.47;;;1.52;;
57233;SDS011;43090;52.604;13.318;2023-12-28T03:26:16;3.03;;;1.60;;
57233;SDS011;43090;52.604;13.318;2023-12-28T03:28:42;3.10;;;1.25;;
57233;SDS011;43090;52.604;13.318;2023-12-28T03:31:09;4.05;;;1.40;;
57233;SDS011;43090;52.604;13.318;2023-12-28T03:33:36;2.75;;;1.45;;
57233;SDS011;43090;52.604;13.318;2023-12-28T03:38:29;4.72;;;1.73;;
57233;SDS011;43090;52.604;13.318;2023-12-28T03:40:56;2.55;;;1.42;;
57233;SDS011;43090;52.604;13.318;2023-12-28T03:43:22;3.03;;;1.50;;
57233;SDS011;43090;52.604;13.318;2023-12-28T03:45:49;2.88;;;1.48;;
57233;SDS011;43090;52.604;13.318;2023-12-28T03:50:43;3.90;;;1.40;;
57233;SDS011;43090;52.604;13.318;2023-12-28T03:53:10;3.13;;;1.70;;
57233;SDS011;43090;52.604;13.318;2023-12-28T03:55:45;3.25;;;1.17;;
57233;SDS011;43090;52.604;13.318;2023-12-28T03:58:19;3.28;;;1.40;;
57233;SDS011;43090;52.604;13.318;2023-12-28T04:00:46;3.08;;;1.52;;
57233;SDS011;43090;52.604;13.318;2023-12-28T04:03:13;4.43;;;1.40;;
57233;SDS011;43090;52.604;13.318;2023-12-28T04:08:09;3.42;;;0.98;;
57233;SDS011;43090;52.604;13.318;2023-12-28T04:10:36;4.43;;;1.42;;
57233;SDS011;43090;52.604;13.318;2023-12-28T04:16:24;6.82;;;1.63;;
57233;SDS011;43090;52.604;13.318;2023-12-28T04:21:17;4.05;;;1.55;;
57233;SDS011;43090;52.604;13.318;2023-12-28T04:23:44;3.15;;;1.10;;
57233;SDS011;43090;52.604;13.318;2023-12-28T04:26:10;1.73;;;0.93;;
57233;SDS011;43090;52.604;13.318;2023-12-28T04:28:37;3.42;;;1.45;;
57233;SDS011;43090;52.604;13.318;2023-12-28T04:31:05;3.72;;;1.30;;
57233;SDS011;43090;52.604;13.318;2023-12-28T04:33:32;4.32;;;1.30;;
57233;SDS011;43090;52.604;13.318;2023-12-28T04:36:01;2.67;;;1.20;;
57233;SDS011;43090;52.604;13.318;2023-12-28T04:38:30;2.17;;;1.20;;
57233;SDS011;43090;52.604;13.318;2023-12-28T04:40:58;2.05;;;1.20;;
57233;SDS011;43090;52.604;13.318;2023-12-28T04:43:28;3.78;;;1.85;;
57233;SDS011;43090;52.604;13.318;2023-12-28T04:45:55;2.00;;;1.10;;
57233;SDS011;43090;52.604;13.318;2023-12-28T04:48:22;3.28;;;1.30;;
57233;SDS011;43090;52.604;13.318;2023-12-28T04:50:50;5.43;;;0.93;;
57233;SDS011;43090;52.604;13.318;2023-12-28T04:53:19;4.13;;;1.80;;
57233;SDS011;43090;52.604;13.318;2023-12-28T04:55:46;5.20;;;0.93;;
57233;SDS011;43090;52.604;13.318;2023-12-28T04:58:12;5.20;;;1.42;;
57233;SDS011;43090;52.604;13.318;2023-12-28T05:00:39;2.70;;;1.35;;
57233;SDS011;43090;52.604;13.318;2023-12-28T05:03:06;2.65;;;1.40;;
57233;SDS011;43090;52.604;13.318;2023-12-28T05:05:34;3.05;;;1.40;;
57233;SDS011;43090;52.604;13.318;2023-12-28T05:10:27;4.55;;;1.08;;
57233;SDS011;43090;52.604;13.318;2023-12-28T05:12:54;2.60;;;1.27;;
57233;SDS011;43090;52.604;13.318;2023-12-28T05:15:27;7.20;;;1.45;;
57233;SDS011;43090;52.604;13.318;2023-12-28T05:17:57;2.25;;;1.15;;
57233;SDS011;43090;52.604;13.318;2023-12-28T05:20:24;5.43;;;1.30;;
57233;SDS011;43090;52.604;13.318;2023-12-28T05:25:18;4.32;;;1.30;;
57233;SDS011;43090;52.604;13.318;2023-12-28T05:30:11;5.20;;;1.70;;
57233;SDS011;43090;52.604;13.318;2023-12-28T05:32:38;3.85;;;1.60;;
57233;SDS011;43090;52.604;13.318;2023-12-28T05:35:06;2.88;;;1.27;;
57233;SDS011;43090;52.604;13.318;2023-12-28T05:37:33;3.53;;;1.45;;
57233;SDS011;43090;52.604;13.318;2023-12-28T05:40:00;2.63;;;1.40;;
57233;SDS011;43090;52.604;13.318;2023-12-28T05:42:27;2.63;;;1.20;;
57233;SDS011;43090;52.604;13.318;2023-12-28T05:47:20;2.70;;;1.10;;
57233;SDS011;43090;52.604;13.318;2023-12-28T05:52:14;2.50;;;1.20;;
57233;SDS011;43090;52.604;13.318;2023-12-28T05:54:42;2.33;;;1.35;;
57233;SDS011;43090;52.604;13.318;2023-12-28T05:57:10;2.00;;;1.33;;
57233;SDS011;43090;52.604;13.318;2023-12-28T05:59:40;3.15;;;1.33;;
57233;SDS011;43090;52.604;13.318;2023-12-28T06:02:09;2.72;;;0.98;;
57233;SDS011;43090;52.604;13.318;2023-12-28T06:04:36;8.23;;;1.58;;
57233;SDS011;43090;52.604;13.318;2023-12-28T06:07:04;4.90;;;1.60;;
57233;SDS011;43090;52.604;13.318;2023-12-28T06:09:34;2.53;;;1.42;;
57233;SDS011;43090;52.604;13.318;2023-12-28T06:12:03;4.25;;;1.20;;
57233;SDS011;43090;52.604;13.318;2023-12-28T06:14:30;2.08;;;1.10;;
57233;SDS011;43090;52.604;13.318;2023-12-28T06:16:57;2.42;;;1.48;;
57233;SDS011;43090;52.604;13.318;2023-12-28T06:19:23;2.50;;;1.30;;
57233;SDS011;43090;52.604;13.318;2023-12-28T06:21:53;4.32;;;1.30;;
57233;SDS011;43090;52.604;13.318;2023-12-28T06:24:22;5.40;;;1.25;;
57233;SDS011;43090;52.604;13.318;2023-12-28T06:26:49;2.50;;;1.10;;
57233;SDS011;43090;52.604;13.318;2023-12-28T06:31:42;2.83;;;1.10;;
57233;SDS011;43090;52.604;13.318;2023-12-28T06:34:09;4.45;;;1.50;;
57233;SDS011;43090;52.604;13.318;2023-12-28T06:36:37;2.45;;;1.38;;
57233;SDS011;43090;52.604;13.318;2023-12-28T06:39:10;5.45;;;1.48;;
57233;SDS011;43090;52.604;13.318;2023-12-28T06:41:40;4.97;;;1.40;;
57233;SDS011;43090;52.604;13.318;2023-12-28T06:44:07;5.30;;;1.80;;
57233;SDS011;43090;52.604;13.318;2023-12-28T06:46:34;2.75;;;1.30;;
57233;SDS011;43090;52.604;13.318;2023-12-28T06:49:02;3.97;;;1.45;;
57233;SDS011;43090;52.604;13.318;2023-12-28T06:51:32;2.97;;;1.40;;
57233;SDS011;43090;52.604;13.318;2023-12-28T06:56:30;12.93;;;2.50;;
57233;SDS011;43090;52.604;13.318;2023-12-28T06:59:05;2.50;;;1.42;;
57233;SDS011;43090;52.604;13.318;2023-12-28T07:01:32;5.45;;;1.70;;
57233;SDS011;43090;52.604;13.318;2023-12-28T07:06:31;4.05;;;1.40;;
57233;SDS011;43090;52.604;13.318;2023-12-28T07:09:59;3.58;;;1.33;;
57233;SDS011;43090;52.604;13.318;2023-12-28T07:12:47;4.20;;;1.67;;
57233;SDS011;43090;52.604;13.318;2023-12-28T07:15:14;8.18;;;1.77;;
57233;SDS011;43090;52.604;13.318;2023-12-28T07:18:03;3.20;;;1.45;;
57233;SDS011;43090;52.604;13.318;2023-12-28T07:20:34;2.45;;;1.20;;
57233;SDS011;43090;52.604;13.318;2023-12-28T07:23:09;3.90;;;1.45;;
57233;SDS011;43090;52.604;13.318;2023-12-28T07:25:42;3.53;;;1.35;;
57233;SDS011;43090;52.604;13.318;2023-12-28T07:28:19;2.63;;;1.42;;
57233;SDS011;43090;52.604;13.318;2023-12-28T07:31:16;4.07;;;1.55;;
57233;SDS011;43090;52.604;13.318;2023-12-28T07:34:00;2.92;;;1.58;;
57233;SDS011;43090;52.604;13.318;2023-12-28T07:36:30;5.05;;;1.55;;
57233;SDS011;43090;52.604;13.318;2023-12-28T07:39:01;2.75;;;1.50;;
57233;SDS011;43090;52.604;13.318;2023-12-28T07:41:34;5.70;;;1.55;;
57233;SDS011;43090;52.604;13.318;2023-12-28T07:44:21;6.70;;;1.25;;
57233;SDS011;43090;52.604;13.318;2023-12-28T07:47:06;2.92;;;1.48;;
57233;SDS011;43090;52.604;13.318;2023-12-28T07:49:47;3.70;;;1.77;;
57233;SDS011;43090;52.604;13.318;2023-12-28T08:27:21;3.28;;;1.60;;
57233;SDS011;43090;52.604;13.318;2023-12-28T08:29:53;3.42;;;1.55;;
57233;SDS011;43090;52.604;13.318;2023-12-28T08:32:19;3.55;;;1.65;;
57233;SDS011;43090;52.604;13.318;2023-12-28T08:37:17;4.80;;;1.67;;
57233;SDS011;43090;52.604;13.318;2023-12-28T08:45:25;3.15;;;1.60;;
57233;SDS011;43090;52.604;13.318;2023-12-28T08:47:51;4.00;;;1.80;;
57233;SDS011;43090;52.604;13.318;2023-12-28T08:50:18;3.53;;;1.60;;
57233;SDS011;43090;52.604;13.318;2023-12-28T08:55:11;3.05;;;1.70;;
57233;SDS011;43090;52.604;13.318;2023-12-28T08:57:38;7.65;;;1.90;;
57233;SDS011;43090;52.604;13.318;2023-12-28T09:00:09;5.53;;;1.67;;
57233;SDS011;43090;52.604;13.318;2023-12-28T09:02:36;6.20;;;1.70;;
57233;SDS011;43090;52.604;13.318;2023-12-28T09:05:03;2.75;;;1.50;;
57233;SDS011;43090;52.604;13.318;2023-12-28T09:07:30;3.95;;;1.40;;
57233;SDS011;43090;52.604;13.318;2023-12-28T09:12:26;3.40;;;1.60;;
57233;SDS011;43090;52.604;13.318;2023-12-28T09:14:53;4.70;;;1.73;;
57233;SDS011;43090;52.604;13.318;2023-12-28T09:17:22;4.30;;;1.50;;
57233;SDS011;43090;52.604;13.318;2023-12-28T09:19:57;3.97;;;1.55;;
57233;SDS011;43090;52.604;13.318;2023-12-28T09:22:24;4.28;;;2.17;;
57233;SDS011;43090;52.604;13.318;2023-12-28T09:25:00;2.90;;;1.60;;
57233;SDS011;43090;52.604;13.318;2023-12-28T09:27:27;3.38;;;1.40;;
57233;SDS011;43090;52.604;13.318;2023-12-28T09:30:01;3.58;;;1.55;;
57233;SDS011;43090;52.604;13.318;2023-12-28T09:32:32;4.38;;;1.50;;
57233;SDS011;43090;52.604;13.318;2023-12-28T09:35:05;7.93;;;1.65;;
57233;SDS011;43090;52.604;13.318;2023-12-28T09:37:46;4.80;;;1.85;;
57233;SDS011;43090;52.604;13.318;2023-12-28T09:40:14;4.60;;;1.88;;
57233;SDS011;43090;52.604;13.318;2023-12-28T09:43:24;6.07;;;1.70;;
57233;SDS011;43090;52.604;13.318;2023-12-28T09:46:23;6.07;;;1.33;;
57233;SDS011;43090;52.604;13.318;2023-12-28T09:48:52;3.60;;;1.77;;
57233;SDS011;43090;52.604;13.318;2023-12-28T09:51:20;2.67;;;1.65;;
57233;SDS011;43090;52.604;13.318;2023-12-28T09:53:53;2.92;;;1.50;;
57233;SDS011;43090;52.604;13.318;2023-12-28T09:56:20;5.30;;;1.80;;
57233;SDS011;43090;52.604;13.318;2023-12-28T09:58:55;2.95;;;1.60;;
57233;SDS011;43090;52.604;13.318;2023-12-28T10:01:24;4.93;;;1.77;;
57233;SDS011;43090;52.604;13.318;2023-12-28T10:03:51;4.45;;;1.88;;
57233;SDS011;43090;52.604;13.318;2023-12-28T10:06:18;5.85;;;2.40;;
57233;SDS011;43090;52.604;13.318;2023-12-28T10:08:45;3.03;;;1.65;;
57233;SDS011;43090;52.604;13.318;2023-12-28T10:11:17;3.22;;;1.52;;
57233;SDS011;43090;52.604;13.318;2023-12-28T10:13:44;6.28;;;1.77;;
57233;SDS011;43090;52.604;13.318;2023-12-28T10:16:12;5.47;;;2.35;;
57233;SDS011;43090;52.604;13.318;2023-12-28T10:18:42;5.07;;;2.22;;
57233;SDS011;43090;52.604;13.318;2023-12-28T10:21:10;5.93;;;2.13;;
57233;SDS011;43090;52.604;13.318;2023-12-28T10:23:37;6.07;;;2.13;;
57233;SDS011;43090;52.604;13.318;2023-12-28T10:26:05;5.07;;;1.90;;
57233;SDS011;43090;52.604;13.318;2023-12-28T10:28:32;5.78;;;2.90;;
57233;SDS011;43090;52.604;13.318;2023-12-28T10:30:59;4.43;;;2.03;;
57233;SDS011;43090;52.604;13.318;2023-12-28T10:33:29;7.18;;;2.08;;
57233;SDS011;43090;52.604;13.318;2023-12-28T10:36:12;4.63;;;1.95;;
57233;SDS011;43090;52.604;13.318;2023-12-28T10:38:41;7.95;;;2.63;;
57233;SDS011;43090;52.604;13.318;2023-12-28T10:41:10;6.85;;;2.28;;
57233;SDS011;43090;52.604;13.318;2023-12-28T10:43:46;6.22;;;2.25;;
57233;SDS011;43090;52.604;13.318;2023-12-28T10:46:36;5.30;;;2.13;;
57233;SDS011;43090;52.604;13.318;2023-12-28T10:49:28;6.65;;;2.10;;
57233;SDS011;43090;52.604;13.318;2023-12-28T10:51:57;4.60;;;1.95;;
57233;SDS011;43090;52.604;13.318;2023-12-28T10:54:44;4.50;;;1.85;;
57233;SDS011;43090;52.604;13.318;2023-12-28T10:57:23;8.98;;;1.92;;
57233;SDS011;43090;52.604;13.318;2023-12-28T11:00:30;8.07;;;2.50;;
57233;SDS011;43090;52.604;13.318;2023-12-28T11:03:04;3.33;;;1.88;;
57233;SDS011;43090;52.604;13.318;2023-12-28T11:05:38;6.22;;;2.10;;
57233;SDS011;43090;52.604;13.318;2023-12-28T11:08:10;8.00;;;2.20;;
57233;SDS011;43090;52.604;13.318;2023-12-28T11:10:48;6.30;;;1.90;;
57233;SDS011;43090;52.604;13.318;2023-12-28T11:13:19;3.60;;;1.98;;
57233;SDS011;43090;52.604;13.318;2023-12-28T11:15:49;8.75;;;1.92;;
57233;SDS011;43090;52.604;13.318;2023-12-28T11:18:17;4.63;;;2.08;;
57233;SDS011;43090;52.604;13.318;2023-12-28T11:20:45;15.23;;;2.35;;
57233;SDS011;43090;52.604;13.318;2023-12-28T11:23:20;3.40;;;1.70;;
57233;SDS011;43090;52.604;13.318;2023-12-28T11:25:50;3.72;;;2.00;;
57233;SDS011;43090;52.604;13.318;2023-12-28T11:31:32;3.88;;;2.00;;
57233;SDS011;43090;52.604;13.318;2023-12-28T11:34:03;2.80;;;1.73;;
57233;SDS011;43090;52.604;13.318;2023-12-28T11:36:43;3.10;;;1.75;;
57233;SDS011;43090;52.604;13.318;2023-12-28T11:39:19;4.70;;;2.08;;
57233;SDS011;43090;52.604;13.318;2023-12-28T11:41:59;6.45;;;1.70;;
57233;SDS011;43090;52.604;13.318;2023-12-28T11:47:13;5.78;;;2.22;;
57233;SDS011;43090;52.604;13.318;2023-12-28T11:49:42;3.22;;;1.67;;
57233;SDS011;43090;52.604;13.318;2023-12-28T11:52:10;3.70;;;1.77;;
57233;SDS011;43090;52.604;13.318;2023-12-28T11:54:47;5.95;;;2.05;;
57233;SDS011;43090;52.604;13.318;2023-12-28T11:57:22;3.97;;;1.70;;
57233;SDS011;43090;52.604;13.318;2023-12-28T11:59:53;2.88;;;1.70;;
57233;SDS011;43090;52.604;13.318;2023-12-28T12:02:22;4.10;;;2.00;;
57233;SDS011;43090;52.604;13.318;2023-12-28T12:07:41;5.47;;;1.73;;
57233;SDS011;43090;52.604;13.318;2023-12-28T12:10:15;7.40;;;2.03;;
57233;SDS011;43090;52.604;13.318;2023-12-28T12:12:42;8.15;;;2.13;;
57233;SDS011;43090;52.604;13.318;2023-12-28T12:15:18;2.97;;;1.43;;
57233;SDS011;43090;52.604;13.318;2023-12-28T12:17:45;3.28;;;1.83;;
57233;SDS011;43090;52.604;13.318;2023-12-28T12:20:12;8.60;;;2.60;;
57233;SDS011;43090;52.604;13.318;2023-12-28T12:22:40;3.92;;;1.50;;
57233;SDS011;43090;52.604;13.318;2023-12-28T12:27:59;8.15;;;1.92;;
57233;SDS011;43090;52.604;13.318;2023-12-28T12:30:33;6.10;;;1.73;;
57233;SDS011;43090;52.604;13.318;2023-12-28T12:33:00;7.82;;;1.95;;
57233;SDS011;43090;52.604;13.318;2023-12-28T12:35:28;4.05;;;1.52;;
57233;SDS011;43090;52.604;13.318;2023-12-28T12:37:55;6.78;;;2.10;;
57233;SDS011;43090;52.604;13.318;2023-12-28T12:40:21;4.75;;;1.88;;
57233;SDS011;43090;52.604;13.318;2023-12-28T12:42:53;3.30;;;1.67;;
57233;SDS011;43090;52.604;13.318;2023-12-28T12:45:21;5.93;;;1.67;;
57233;SDS011;43090;52.604;13.318;2023-12-28T12:47:48;2.03;;;1.30;;
57233;SDS011;43090;52.604;13.318;2023-12-28T12:50:17;4.68;;;1.80;;
57233;SDS011;43090;52.604;13.318;2023-12-28T12:55:12;6.20;;;1.75;;
57233;SDS011;43090;52.604;13.318;2023-12-28T12:57:39;5.90;;;1.80;;
57233;SDS011;43090;52.604;13.318;2023-12-28T13:00:08;4.90;;;2.00;;
57233;SDS011;43090;52.604;13.318;2023-12-28T13:02:36;8.52;;;2.25;;
57233;SDS011;43090;52.604;13.318;2023-12-28T13:05:04;4.28;;;1.35;;
57233;SDS011;43090;52.604;13.318;2023-12-28T13:07:31;4.72;;;1.95;;
57233;SDS011;43090;52.604;13.318;2023-12-28T13:12:25;7.65;;;1.90;;
57233;SDS011;43090;52.604;13.318;2023-12-28T13:17:18;16.00;;;1.90;;
57233;SDS011;43090;52.604;13.318;2023-12-28T13:19:45;9.00;;;2.10;;
57233;SDS011;43090;52.604;13.318;2023-12-28T13:22:15;10.63;;;2.45;;
57233;SDS011;43090;52.604;13.318;2023-12-28T13:24:41;5.78;;;1.92;;
57233;SDS011;43090;52.604;13.318;2023-12-28T13:27:08;4.22;;;1.65;;
57233;SDS011;43090;52.604;13.318;2023-12-28T13:29:36;13.52;;;1.92;;
57233;SDS011;43090;52.604;13.318;2023-12-28T13:34:30;4.55;;;1.45;;
57233;SDS011;43090;52.604;13.318;2023-12-28T13:37:00;2.95;;;1.23;;
57233;SDS011;43090;52.604;13.318;2023-12-28T13:39:29;4.60;;;1.60;;
57233;SDS011;43090;52.604;13.318;2023-12-28T13:41:56;11.18;;;1.80;;
57233;SDS011;43090;52.604;13.318;2023-12-28T13:44:22;3.63;;;1.50;;
57233;SDS011;43090;52.604;13.318;2023-12-28T13:46:51;9.15;;;2.13;;
57233;SDS011;43090;52.604;13.318;2023-12-28T13:49:20;4.38;;;1.60;;
57233;SDS011;43090;52.604;13.318;2023-12-28T13:51:52;5.55;;;1.55;;
57233;SDS011;43090;52.604;13.318;2023-12-28T13:54:28;5.80;;;1.73;;
57233;SDS011;43090;52.604;13.318;2023-12-28T13:56:58;7.15;;;2.05;;
57233;SDS011;43090;52.604;13.318;2023-12-28T13:59:33;3.85;;;1.67;;
57233;SDS011;43090;52.604;13.318;2023-12-28T14:02:00;6.20;;;2.05;;
57233;SDS011;43090;52.604;13.318;2023-12-28T14:04:27;7.30;;;2.25;;
57233;SDS011;43090;52.604;13.318;2023-12-28T14:07:01;7.55;;;1.73;;
57233;SDS011;43090;52.604;13.318;2023-12-28T14:09:35;4.35;;;1.58;;
57233;SDS011;43090;52.604;13.318;2023-12-28T14:12:20;5.07;;;1.80;;
57233;SDS011;43090;52.604;13.318;2023-12-28T14:14:47;8.20;;;2.03;;
57233;SDS011;43090;52.604;13.318;2023-12-28T14:17:21;8.52;;;1.88;;
57233;SDS011;43090;52.604;13.318;2023-12-28T14:19:48;4.18;;;2.17;;
57233;SDS011;43090;52.604;13.318;2023-12-28T14:22:33;7.05;;;2.05;;
57233;SDS011;43090;52.604;13.318;2023-12-28T14:25:02;4.05;;;1.55;;
57233;SDS011;43090;52.604;13.318;2023-12-28T14:27:41;5.55;;;2.30;;
57233;SDS011;43090;52.604;13.318;2023-12-28T14:30:09;5.95;;;1.85;;
57233;SDS011;43090;52.604;13.318;2023-12-28T14:32:44;7.15;;;1.85;;
57233;SDS011;43090;52.604;13.318;2023-12-28T14:35:19;6.95;;;1.73;;
57233;SDS011;43090;52.604;13.318;2023-12-28T14:38:00;7.78;;;1.92;;
57233;SDS011;43090;52.604;13.318;2023-12-28T14:40:39;7.70;;;2.15;;
57233;SDS011;43090;52.604;13.318;2023-12-28T14:43:10;4.93;;;1.90;;
57233;SDS011;43090;52.604;13.318;2023-12-28T14:45:37;6.40;;;2.28;;
57233;SDS011;43090;52.604;13.318;2023-12-28T14:48:06;4.60;;;1.67;;
57233;SDS011;43090;52.604;13.318;2023-12-28T14:50:33;3.60;;;1.40;;
57233;SDS011;43090;52.604;13.318;2023-12-28T14:53:02;7.75;;;1.80;;
57233;SDS011;43090;52.604;13.318;2023-12-28T14:55:31;5.20;;;1.58;;
57233;SDS011;43090;52.604;13.318;2023-12-28T15:00:26;5.93;;;1.88;;
57233;SDS011;43090;52.604;13.318;2023-12-28T15:06:04;6.95;;;1.65;;
57233;SDS011;43090;52.604;13.318;2023-12-28T15:08:34;8.07;;;1.95;;
57233;SDS011;43090;52.604;13.318;2023-12-28T15:11:01;4.47;;;1.67;;
57233;SDS011;43090;52.604;13.318;2023-12-28T15:13:28;7.30;;;1.75;;
57233;SDS011;43090;52.604;13.318;2023-12-28T15:15:58;10.50;;;1.95;;
57233;SDS011;43090;52.604;13.318;2023-12-28T15:18:27;9.23;;;2.15;;
57233;SDS011;43090;52.604;13.318;2023-12-28T15:20:58;3.25;;;1.58;;
57233;SDS011;43090;52.604;13.318;2023-12-28T15:23:25;5.13;;;1.95;;
57233;SDS011;43090;52.604;13.318;2023-12-28T15:25:56;5.88;;;1.58;;
57233;SDS011;43090;52.604;13.318;2023-12-28T15:28:25;7.20;;;1.67;;
57233;SDS011;43090;52.604;13.318;2023-12-28T15:31:07;3.25;;;1.13;;
57233;SDS011;43090;52.604;13.318;2023-12-28T15:34:22;7.85;;;1.70;;
57233;SDS011;43090;52.604;13.318;2023-12-28T15:36:49;8.45;;;1.83;;
57233;SDS011;43090;52.604;13.318;2023-12-28T15:39:16;4.72;;;1.80;;
57233;SDS011;43090;52.604;13.318;2023-12-28T15:44:15;7.78;;;2.03;;
57233;SDS011;43090;52.604;13.318;2023-12-28T15:46:45;4.35;;;1.38;;
57233;SDS011;43090;52.604;13.318;2023-12-28T15:49:15;6.53;;;1.52;;
57233;SDS011;43090;52.604;13.318;2023-12-28T15:51:42;4.05;;;1.90;;
57233;SDS011;43090;52.604;13.318;2023-12-28T15:54:11;7.63;;;1.85;;
57233;SDS011;43090;52.604;13.318;2023-12-28T15:56:41;5.05;;;1.70;;
57233;SDS011;43090;52.604;13.318;2023-12-28T15:59:08;3.35;;;1.70;;
57233;SDS011;43090;52.604;13.318;2023-12-28T16:04:31;7.97;;;2.45;;
57233;SDS011;43090;52.604;13.318;2023-12-28T16:16:47;4.78;;;1.83;;
57233;SDS011;43090;52.604;13.318;2023-12-28T16:19:14;5.68;;;1.70;;
57233;SDS011;43090;52.604;13.318;2023-12-28T16:21:43;7.70;;;1.85;;
57233;SDS011;43090;52.604;13.318;2023-12-28T16:24:11;5.13;;;1.85;;
57233;SDS011;43090;52.604;13.318;2023-12-28T16:26:41;8.93;;;1.98;;
57233;SDS011;43090;52.604;13.318;2023-12-28T16:29:13;3.30;;;1.63;;
57233;SDS011;43090;52.604;13.318;2023-12-28T16:31:40;4.38;;;1.80;;
57233;SDS011;43090;52.604;13.318;2023-12-28T16:34:07;4.57;;;1.75;;
57233;SDS011;43090;52.604;13.318;2023-12-28T16:41:04;6.13;;;2.22;;
57233;SDS011;43090;52.604;13.318;2023-12-28T16:51:32;8.98;;;1.85;;
57233;SDS011;43090;52.604;13.318;2023-12-28T16:53:43;8.60;;;1.88;;
57233;SDS011;43090;52.604;13.318;2023-12-28T16:56:12;5.55;;;3.05;;
57233;SDS011;43090;52.604;13.318;2023-12-28T17:01:46;8.70;;;2.05;;
57233;SDS011;43090;52.604;13.318;2023-12-28T17:04:12;2.53;;;1.50;;
57233;SDS011;43090;52.604;13.318;2023-12-28T17:07:02;4.80;;;1.85;;
57233;SDS011;43090;52.604;13.318;2023-12-28T17:09:48;6.75;;;1.90;;
57233;SDS011;43090;52.604;13.318;2023-12-28T17:12:26;4.13;;;1.65;;
57233;SDS011;43090;52.604;13.318;2023-12-28T17:14:57;4.53;;;1.95;;
57233;SDS011;43090;52.604;13.318;2023-12-28T17:17:24;8.07;;;2.05;;
57233;SDS011;43090;52.604;13.318;2023-12-28T17:19:51;7.78;;;2.20;;
57233;SDS011;43090;52.604;13.318;2023-12-28T17:22:19;4.50;;;1.90;;
57233;SDS011;43090;52.604;13.318;2023-12-28T17:24:53;7.13;;;1.77;;
57233;SDS011;43090;52.604;13.318;2023-12-28T17:27:37;7.43;;;2.03;;
57233;SDS011;43090;52.604;13.318;2023-12-28T17:30:13;7.03;;;2.13;;
57233;SDS011;43090;52.604;13.318;2023-12-28T17:32:41;5.88;;;1.83;;
57233;SDS011;43090;52.604;13.318;2023-12-28T17:35:17;7.47;;;2.20;;
57233;SDS011;43090;52.604;13.318;2023-12-28T17:38:02;9.32;;;1.85;;